Bei Facebook empfehlenBei Twitter postenGoogle plusPinterest

Das Wetter im Erzgebirge am 01.01.2015

Wetter und Klima am 01.01.2015 Holzhau im Erzgebirge (630m ü.NN)
Letzte gemessene Temperatur und Uhrzeit der Messung23:45:00 Uhr-0.40 °C
Temperatur (Maximum / Höchstwert) und Uhrzeit der Messung14:00:00 Uhr4.60 °C
Temperatur (Minimum / Tiefstwert) und Uhrzeit der Messung19:15:00-1.70 °C
Errechneter Absolutwert der Temperaturschwankungen zwischen Tmin und Tmax des Tages6.30 K
Errechnete Tagesmitteltemperatur0.49271 °C
Gesamt - Niederschlag des Tages (in flüssiger Form)9.84 Liter / m²
Luftdruck (Maximum / Höchstwert) und Zeitpunkt der Messung10:30:00 Uhr1031.10 hPa
Luftdruck (Minimum / Tiefstwert) und Zeitpunkt der Messung23:45:00 Uhr1024.60 hPa
Errechneter Absolutwert der Luftdruckschwankungen des Tages6.50 hPa
Höchste gemessene Windgeschwindigkeit und Uhrzeit der Messung23:45:00 Uhr0.00 km/h
Errechnete Windhäufigkeit in Relation zu den Messwerten des Tages0.00000 %
Niedrigste Windkühle (Windchill) und Zeitpunkt der Messung19:15:00 Uhr-1.70 °C
Taupunkt (Maximum / Höchstwert) und Uhrzeit der Messung14:00:00 Uhr3.70 °C
Taupunkt (Minimum / Tiefstwert) und Uhrzeit der Messung17:45:00-2.90 °C
Anzahl der automatisch eingelesenen Messwerte 96

Detaillierte Wetter- und Klima- Messwerte für den 01.01.2015 in Holzhau im Erzgebirge (630m ü.NN)
ZeitTemperaturLuftdruckRel. LuftfeuchteWindWindrichtungWindchillTaupunktNiederschlag l/m²
23:45:00-0.40 °C1024.60 hPa94.00 %-1.30 °C9.84
23:30:00-0.40 °C1025.10 hPa94.00 %-1.30 °C9.84
23:15:00-0.60 °C1025.30 hPa94.00 %-1.50 °C9.84
23:00:00-0.90 °C1025.50 hPa94.00 %-1.80 °C9.84
22:45:00-1.10 °C1025.60 hPa94.00 %-2.00 °C9.84
22:30:00-1.10 °C1025.70 hPa94.00 %-2.00 °C9.84
22:15:00-1.20 °C1026.20 hPa94.00 %-2.10 °C9.84
22:00:00-1.10 °C1026.60 hPa94.00 %-2.00 °C9.84
21:45:00-1.00 °C1026.80 hPa93.00 %-2.10 °C9.84
21:30:00-1.10 °C1027.00 hPa93.00 %-2.20 °C9.84
21:15:00-1.40 °C1027.10 hPa93.00 %-2.50 °C9.84
21:00:00-1.60 °C1027.30 hPa93.00 %-2.70 °C9.84
20:45:00-1.30 °C1027.20 hPa93.00 %-2.40 °C9.84
20:30:00-1.40 °C1027.20 hPa93.00 %-2.50 °C9.84
20:15:00-1.50 °C1027.60 hPa93.00 %-2.60 °C9.84
20:00:00-1.40 °C1027.80 hPa93.00 %-2.50 °C9.84
19:45:00-1.40 °C1027.70 hPa93.00 %-2.50 °C9.84
19:30:00-1.50 °C1027.90 hPa93.00 %-2.60 °C9.84
19:15:00-1.70 °C1027.90 hPa93.00 %-2.80 °C9.84
19:00:00-1.60 °C1028.00 hPa93.00 %-2.70 °C9.84
18:45:00-1.50 °C1028.30 hPa93.00 %-2.60 °C9.84
18:30:00-1.40 °C1028.50 hPa93.00 %-2.50 °C9.84
18:15:00-1.50 °C1028.60 hPa93.00 %-2.60 °C9.84
18:00:00-1.60 °C1028.50 hPa93.00 %-2.70 °C9.84
17:45:00-1.60 °C1028.80 hPa92.00 %-2.90 °C9.84
17:30:00-1.40 °C1028.70 hPa92.00 %-2.70 °C9.84
17:15:00-1.10 °C1028.90 hPa92.00 %-2.40 °C9.84
17:00:00-0.70 °C1028.70 hPa92.00 %-2.00 °C9.84
16:45:00-0.20 °C1028.60 hPa92.00 %-1.50 °C9.84
16:30:000.40 °C1028.50 hPa92.00 %-0.70 °C9.84
16:15:000.90 °C1028.40 hPa92.00 %-0.20 °C9.84
16:00:001.00 °C1028.50 hPa91.00 %-0.30 °C9.84
15:45:001.50 °C1028.50 hPa91.00 %0.20 °C9.84
15:30:002.40 °C1028.50 hPa91.00 %1.10 °C9.84
15:15:003.10 °C1028.50 hPa92.00 %1.90 °C9.84
15:00:003.60 °C1028.80 hPa92.00 %2.40 °C9.84
14:45:003.90 °C1029.10 hPa92.00 %2.70 °C9.32
14:30:004.40 °C1029.20 hPa93.00 %3.40 °C9.32
14:15:004.50 °C1029.40 hPa94.00 %3.60 °C9.32
14:00:004.60 °C1029.20 hPa94.00 %3.70 °C8.81
13:45:004.40 °C1029.10 hPa94.00 %3.50 °C8.81
13:30:004.30 °C1029.10 hPa94.00 %3.40 °C8.29
13:15:004.20 °C1029.30 hPa94.00 %3.30 °C8.29
13:00:003.90 °C1029.00 hPa94.00 %3.00 °C7.77
12:45:003.60 °C1029.10 hPa95.00 %2.90 °C7.77
12:30:002.80 °C1029.20 hPa94.00 %1.90 °C7.25
12:15:002.60 °C1029.40 hPa94.00 %1.70 °C7.25
12:00:002.10 °C1029.40 hPa95.00 %1.40 °C6.73
11:45:002.30 °C1029.40 hPa95.00 %1.60 °C6.22
11:30:001.80 °C1029.50 hPa95.00 %1.10 °C6.22
11:15:001.50 °C1029.80 hPa95.00 %0.80 °C5.70
11:00:001.10 °C1030.10 hPa95.00 %0.40 °C5.70
10:45:001.00 °C1030.70 hPa95.00 %0.30 °C5.18
10:30:000.90 °C1031.10 hPa95.00 %0.20 °C5.18
10:15:000.90 °C1031.10 hPa95.00 %0.20 °C5.18
10:00:000.80 °C1030.90 hPa95.00 %0.10 °C4.66
09:45:000.60 °C1031.00 hPa94.00 %-0.30 °C4.66
09:30:000.60 °C1030.70 hPa94.00 %-0.30 °C4.66
09:15:000.60 °C1030.80 hPa94.00 %-0.30 °C4.66
09:00:000.50 °C1030.40 hPa94.00 %-0.40 °C4.66
08:45:000.40 °C1030.20 hPa94.00 %-0.50 °C4.14
08:30:000.40 °C1030.20 hPa94.00 %-0.50 °C4.14
08:15:000.40 °C1030.10 hPa94.00 %-0.50 °C4.14
08:00:000.40 °C1030.00 hPa94.00 %-0.50 °C4.14
07:45:000.40 °C1030.00 hPa94.00 %-0.50 °C4.14
07:30:000.40 °C1029.70 hPa94.00 %-0.50 °C4.14
07:15:000.40 °C1029.50 hPa94.00 %-0.50 °C3.63
07:00:000.40 °C1029.20 hPa94.00 %-0.50 °C3.63
06:45:000.40 °C1029.40 hPa94.00 %-0.50 °C3.63
06:30:000.40 °C1029.50 hPa94.00 %-0.50 °C3.63
06:15:000.40 °C1029.40 hPa94.00 %-0.50 °C3.63
06:00:000.40 °C1029.40 hPa94.00 %-0.50 °C3.11
05:45:000.40 °C1029.30 hPa94.00 %-0.50 °C3.11
05:30:000.40 °C1029.40 hPa94.00 %-0.50 °C3.11
05:15:000.40 °C1029.50 hPa94.00 %-0.50 °C3.11
05:00:000.40 °C1029.40 hPa94.00 %-0.50 °C2.59
04:45:000.40 °C1029.30 hPa94.00 %-0.50 °C2.59
04:30:000.40 °C1029.40 hPa94.00 %-0.50 °C2.59
04:15:000.30 °C1029.50 hPa94.00 %-0.50 °C2.59
04:00:000.30 °C1029.30 hPa94.00 %-0.50 °C2.07
03:45:000.30 °C1029.50 hPa94.00 %-0.50 °C2.07
03:30:000.20 °C1029.50 hPa94.00 %-0.60 °C2.07
03:15:000.20 °C1029.40 hPa94.00 %-0.60 °C1.55
03:00:000.30 °C1029.40 hPa94.00 %-0.50 °C1.55
02:45:000.20 °C1029.30 hPa94.00 %-0.60 °C1.55
02:30:000.20 °C1029.20 hPa94.00 %-0.60 °C1.55
02:15:000.20 °C1029.20 hPa94.00 %-0.60 °C1.04
02:00:000.20 °C1028.80 hPa94.00 %-0.60 °C1.04
01:45:000.20 °C1028.80 hPa94.00 %-0.60 °C0.52
01:30:000.20 °C1028.70 hPa94.00 %-0.60 °C0.52
01:15:000.20 °C1028.60 hPa94.00 %-0.60 °C0.52
01:00:000.20 °C1028.70 hPa94.00 %-0.60 °C 
00:45:000.20 °C1028.50 hPa94.00 %-0.60 °C 
00:30:000.20 °C1028.50 hPa94.00 %-0.60 °C 
00:15:000.20 °C1028.40 hPa94.00 %-0.60 °C 
00:00:000.20 °C1028.30 hPa94.00 %-0.60 °C 

Permanenter Link zu dieser Seite: Wetter im Erzgebirge am 01.01.2015
Performance-Info: Die Erstellung der Seite / Statistik(en) / Tabelle(n) erforderte 5 Datenbankserver-Abfrage(n) und dauerte 101 Millisekunden. (Dieser Messwert ist von der Gesamt-Auslastung des Servers abhängig.)
Erzgebirge - Wetter | Erzgebirge - Wetter (Mobilgeräte) | Komplette Klimadatenbank